Time;durP1;ratioP1;P1;durP2;ratioP2;P2;SDS_P1;SDS_P2;PMS_P1;PMS_P2;Temp;Humidity;BMP_temperature;BMP_pressure;BME280_temperature;BME280_humidity;BME280_pressure;Samples;Min_cycle;Max_cycle;Signal;HPM_P1;HPM_P2
2024/01/30 00:03:20;;;;;;;14.47;4.43;;;;;;;;;;10477104;28;20113;-75
2024/01/30 00:08:30;;;;;;;12.20;4.25;;;;;;;;;;10486316;28;20047;-76
2024/01/30 00:13:40;;;;;;;11.88;5.13;;;;;;;;;;10485735;28;20039;-76
2024/01/30 00:18:47;;;;;;;10.90;4.17;;;;;;;;;;10481553;28;20108;-76
2024/01/30 00:23:59;;;;;;;8.07;3.60;;;;;;;;;;10468777;28;20051;-76
2024/01/30 00:29:09;;;;;;;9.20;3.97;;;;;;;;;;10478940;28;20446;-75
2024/01/30 00:34:20;;;;;;;10.00;4.30;;;;;;;;;;10483755;28;20047;-75
2024/01/30 00:39:25;;;;;;;12.40;4.03;;;;;;;;;;10468393;28;20127;-76
2024/01/30 00:44:29;;;;;;;9.00;4.07;;;;;;;;;;10468140;28;20537;-76
2024/01/30 00:49:35;;;;;;;10.43;4.60;;;;;;;;;;10490889;28;20127;-76
2024/01/30 00:54:46;;;;;;;12.97;4.80;;;;;;;;;;10469649;28;20060;-76
2024/01/30 00:59:53;;;;;;;11.40;4.10;;;;;;;;;;10486730;28;20497;-76
2024/01/30 01:05:03;;;;;;;10.80;4.03;;;;;;;;;;10463689;28;20072;-75
2024/01/30 01:15:43;;;;;;;9.13;4.13;;;;;;;;;;10479315;28;20059;-75
2024/01/30 01:20:49;;;;;;;11.60;4.43;;;;;;;;;;10473045;28;20044;-76
2024/01/30 01:25:59;;;;;;;8.57;4.10;;;;;;;;;;10466098;28;20611;-75
2024/01/30 01:31:12;;;;;;;18.35;4.78;;;;;;;;;;10472783;28;20524;-76
2024/01/30 01:36:35;;;;;;;14.00;4.73;;;;;;;;;;10468571;28;20075;-77
2024/01/30 01:41:47;;;;;;;9.93;4.03;;;;;;;;;;10453349;28;20600;-76
2024/01/30 01:46:56;;;;;;;7.85;3.67;;;;;;;;;;10438894;28;20076;-76
2024/01/30 01:52:03;;;;;;;11.70;4.40;;;;;;;;;;10440367;28;20129;-76
2024/01/30 01:57:10;;;;;;;12.10;4.47;;;;;;;;;;10467778;28;20130;-75
2024/01/30 02:02:23;;;;;;;8.83;3.50;;;;;;;;;;10466844;28;20053;-75
2024/01/30 02:07:48;;;;;;;10.57;3.50;;;;;;;;;;10471211;28;20441;-77
2024/01/30 02:12:58;;;;;;;9.27;4.00;;;;;;;;;;10468376;28;20045;-77
2024/01/30 02:18:05;;;;;;;16.13;3.97;;;;;;;;;;10467073;28;21245;-76
2024/01/30 02:23:09;;;;;;;;;;;;;;;;;;10474962;28;20052;-76
2024/01/30 02:28:24;;;;;;;10.03;3.30;;;;;;;;;;10459467;28;19924;-76
2024/01/30 02:33:28;;;;;;;6.43;2.97;;;;;;;;;;10434312;28;20154;-75
2024/01/30 02:38:32;;;;;;;9.50;3.47;;;;;;;;;;10477083;28;20056;-74
2024/01/30 02:43:39;;;;;;;7.63;3.20;;;;;;;;;;10477636;28;20508;-76
2024/01/30 02:48:43;;;;;;;8.57;3.43;;;;;;;;;;10478541;28;20185;-75
2024/01/30 02:53:50;;;;;;;11.53;3.80;;;;;;;;;;10461586;28;20051;-76
2024/01/30 02:58:57;;;;;;;9.03;3.73;;;;;;;;;;10473246;28;20057;-76
2024/01/30 03:04:02;;;;;;;11.13;3.87;;;;;;;;;;10479420;28;22038;-76
2024/01/30 03:09:05;;;;;;;9.57;3.13;;;;;;;;;;10475182;28;20261;-75
2024/01/30 03:14:14;;;;;;;9.27;3.47;;;;;;;;;;10458227;28;20131;-76
2024/01/30 03:19:20;;;;;;;6.47;2.87;;;;;;;;;;10461904;28;20472;-77
2024/01/30 03:24:27;;;;;;;10.47;3.30;;;;;;;;;;10472663;28;20614;-78
2024/01/30 03:29:34;;;;;;;5.20;3.00;;;;;;;;;;10458395;28;20068;-76
2024/01/30 03:40:07;;;;;;;4.87;2.20;;;;;;;;;;10456547;28;20048;-77
2024/01/30 03:45:24;;;;;;;8.03;3.03;;;;;;;;;;10478553;28;20048;-75
2024/01/30 03:50:33;;;;;;;6.60;3.10;;;;;;;;;;10476741;28;20060;-76
2024/01/30 03:55:40;;;;;;;9.40;2.80;;;;;;;;;;10474969;28;20049;-76
2024/01/30 04:00:45;;;;;;;9.07;2.97;;;;;;;;;;10477204;28;20906;-77
2024/01/30 04:05:49;;;;;;;5.73;3.00;;;;;;;;;;10454460;28;20405;-77
2024/01/30 04:10:57;;;;;;;9.07;2.90;;;;;;;;;;10458263;28;20045;-77
2024/01/30 04:16:20;;;;;;;9.27;3.20;;;;;;;;;;10476854;28;20048;-76
2024/01/30 04:21:40;;;;;;;10.77;2.87;;;;;;;;;;10465363;28;20056;-76
2024/01/30 04:26:49;;;;;;;7.78;2.38;;;;;;;;;;10474641;28;20128;-77
2024/01/30 04:32:11;;;;;;;5.93;2.87;;;;;;;;;;10470177;28;20056;-77
2024/01/30 04:37:18;;;;;;;5.87;2.27;;;;;;;;;;10468234;28;20135;-76
2024/01/30 04:42:34;;;;;;;5.90;2.43;;;;;;;;;;10474895;28;20084;-76
2024/01/30 04:47:38;;;;;;;5.77;2.60;;;;;;;;;;10455435;28;20044;-76
2024/01/30 04:52:56;;;;;;;7.00;2.87;;;;;;;;;;10470103;28;20098;-76
2024/01/30 04:58:03;;;;;;;7.70;2.57;;;;;;;;;;10473139;28;20068;-76
2024/01/30 05:03:08;;;;;;;9.43;2.73;;;;;;;;;;10455647;28;20036;-76
2024/01/30 05:08:18;;;;;;;7.33;2.80;;;;;;;;;;10454622;28;20339;-75
2024/01/30 05:13:24;;;;;;;9.93;2.83;;;;;;;;;;10471819;28;20052;-76
2024/01/30 05:18:39;;;;;;;7.63;2.50;;;;;;;;;;10475043;28;20048;-75
2024/01/30 05:23:48;;;;;;;5.90;2.83;;;;;;;;;;10469438;28;20048;-75
2024/01/30 05:28:53;;;;;;;9.40;3.00;;;;;;;;;;10468510;28;20048;-75
2024/01/30 05:34:03;;;;;;;8.83;2.83;;;;;;;;;;10470125;28;22308;-75
2024/01/30 05:39:09;;;;;;;10.23;3.07;;;;;;;;;;10469528;28;20056;-76
2024/01/30 05:44:15;;;;;;;6.53;2.90;;;;;;;;;;10448931;28;20148;-76
2024/01/30 05:49:18;;;;;;;9.20;3.27;;;;;;;;;;10448605;28;20471;-76
2024/01/30 05:54:32;;;;;;;6.25;2.67;;;;;;;;;;10471911;28;20051;-77
2024/01/30 05:59:39;;;;;;;7.77;2.83;;;;;;;;;;10468757;28;20128;-75
2024/01/30 06:04:46;;;;;;;5.10;2.50;;;;;;;;;;10467425;28;20432;-75
2024/01/30 06:10:00;;;;;;;7.97;2.83;;;;;;;;;;10450036;28;20055;-74
2024/01/30 06:15:06;;;;;;;5.57;2.47;;;;;;;;;;10450536;28;20398;-74
2024/01/30 06:20:13;;;;;;;5.37;2.53;;;;;;;;;;10455513;28;20052;-77
2024/01/30 06:25:22;;;;;;;11.83;2.90;;;;;;;;;;10449370;28;20138;-76
2024/01/30 06:35:49;;;;;;;6.90;2.30;;;;;;;;;;10462984;28;20592;-75
2024/01/30 06:41:00;;;;;;;7.93;2.40;;;;;;;;;;10443306;28;20182;-75
2024/01/30 06:46:05;;;;;;;3.00;1.73;;;;;;;;;;10452270;28;20545;-76
2024/01/30 06:51:11;;;;;;;9.77;2.50;;;;;;;;;;10468408;28;20042;-75
2024/01/30 06:56:22;;;;;;;6.80;2.13;;;;;;;;;;10468426;28;20095;-74
2024/01/30 07:01:36;;;;;;;;;;;;;;;;;;10469430;28;20044;-75
2024/01/30 07:06:43;;;;;;;5.47;1.90;;;;;;;;;;10466918;28;20411;-76
2024/01/30 07:12:11;;;;;;;4.65;2.35;;;;;;;;;;10472612;28;20066;-76
2024/01/30 07:17:19;;;;;;;9.50;2.05;;;;;;;;;;10477954;28;20078;-74
2024/01/30 07:22:27;;;;;;;4.15;1.95;;;;;;;;;;10463294;28;20060;-76
2024/01/30 07:27:49;;;;;;;6.38;2.50;;;;;;;;;;10465133;28;20076;-76
2024/01/30 07:33:01;;;;;;;8.60;2.55;;;;;;;;;;10462136;28;20668;-76
2024/01/30 07:38:08;;;;;;;5.13;2.22;;;;;;;;;;10461315;28;20051;-76
2024/01/30 07:43:17;;;;;;;6.70;2.45;;;;;;;;;;10478306;28;20048;-76
2024/01/30 07:48:42;;;;;;;6.00;2.63;;;;;;;;;;10480620;28;20122;-77
2024/01/30 07:53:46;;;;;;;14.95;3.47;;;;;;;;;;10479464;28;20032;-76
2024/01/30 07:58:51;;;;;;;7.68;3.03;;;;;;;;;;10479173;28;20144;-75
2024/01/30 08:04:10;;;;;;;7.50;2.63;;;;;;;;;;10480226;28;20031;-76
2024/01/30 08:09:20;;;;;;;5.93;2.63;;;;;;;;;;10477918;28;20060;-76
2024/01/30 08:14:32;;;;;;;5.35;2.50;;;;;;;;;;10477873;28;20513;-77
2024/01/30 08:19:41;;;;;;;10.88;2.65;;;;;;;;;;10477398;28;20048;-77
2024/01/30 08:24:46;;;;;;;8.35;2.60;;;;;;;;;;10446596;28;20082;-77
2024/01/30 08:29:50;;;;;;;;;;;;;;;;;;10478100;28;20051;-77
2024/01/30 08:35:06;;;;;;;6.88;2.90;;;;;;;;;;10478041;28;19936;-77
2024/01/30 08:40:17;;;;;;;7.03;3.20;;;;;;;;;;10474710;28;20329;-77
2024/01/30 08:45:25;;;;;;;11.85;3.88;;;;;;;;;;10476349;28;20437;-77
2024/01/30 08:50:35;;;;;;;8.82;3.50;;;;;;;;;;10476274;28;20146;-78
2024/01/30 08:55:50;;;;;;;9.75;3.90;;;;;;;;;;10472888;28;20081;-78
2024/01/30 09:01:11;;;;;;;13.10;3.80;;;;;;;;;;10456573;28;20092;-78
2024/01/30 09:06:28;;;;;;;7.68;3.47;;;;;;;;;;10456847;28;20076;-77
2024/01/30 09:11:38;;;;;;;8.00;3.90;;;;;;;;;;10473773;28;20036;-78
2024/01/30 09:16:42;;;;;;;10.27;3.70;;;;;;;;;;10435337;28;20123;-77
2024/01/30 09:21:56;;;;;;;11.23;3.92;;;;;;;;;;10472587;28;20071;-77
2024/01/30 09:27:03;;;;;;;12.43;4.20;;;;;;;;;;10471307;28;20048;-77
2024/01/30 09:32:17;;;;;;;10.07;4.13;;;;;;;;;;10453151;28;20532;-75
2024/01/30 09:37:24;;;;;;;8.80;3.78;;;;;;;;;;10469036;28;20467;-77
2024/01/30 09:42:38;;;;;;;10.93;4.32;;;;;;;;;;10458265;28;20036;-77
2024/01/30 09:47:46;;;;;;;12.27;4.60;;;;;;;;;;10473073;28;20048;-77
2024/01/30 09:53:01;;;;;;;12.73;4.22;;;;;;;;;;10472538;28;20136;-78
2024/01/30 09:58:09;;;;;;;11.40;4.63;;;;;;;;;;10453451;28;20044;-77
2024/01/30 10:03:19;;;;;;;12.55;5.10;;;;;;;;;;10468756;28;20044;-78
2024/01/30 10:08:25;;;;;;;8.68;4.10;;;;;;;;;;10458586;28;20669;-78
2024/01/30 10:13:29;;;;;;;12.40;4.55;;;;;;;;;;10471964;28;20045;-77
2024/01/30 10:18:33;;;;;;;11.60;4.57;;;;;;;;;;10475317;28;20044;-78
2024/01/30 10:23:45;;;;;;;9.35;4.60;;;;;;;;;;10472044;28;20559;-78
2024/01/30 10:28:51;;;;;;;9.02;4.20;;;;;;;;;;10455927;28;20190;-78
2024/01/30 10:33:56;;;;;;;9.25;3.50;;;;;;;;;;10471215;28;20053;-78
2024/01/30 10:39:24;;;;;;;6.90;3.45;;;;;;;;;;10472065;28;20135;-77
2024/01/30 10:44:32;;;;;;;10.00;3.20;;;;;;;;;;10476644;28;20049;-78
2024/01/30 10:49:43;;;;;;;10.32;4.28;;;;;;;;;;10481208;28;20447;-78
2024/01/30 10:55:14;;;;;;;8.23;3.70;;;;;;;;;;10464014;28;20398;-79
2024/01/30 11:00:23;;;;;;;6.28;3.20;;;;;;;;;;10464314;28;20127;-78
2024/01/30 11:05:33;;;;;;;6.65;2.80;;;;;;;;;;10479815;28;20041;-78
2024/01/30 11:10:46;;;;;;;7.63;3.35;;;;;;;;;;10444893;28;20135;-78
2024/01/30 11:15:56;;;;;;;7.20;2.83;;;;;;;;;;10479737;28;20053;-78
2024/01/30 11:21:04;;;;;;;5.53;2.63;;;;;;;;;;10478085;28;20036;-78
2024/01/30 11:26:21;;;;;;;4.25;2.55;;;;;;;;;;10473857;28;20498;-78
2024/01/30 11:31:32;;;;;;;8.73;3.00;;;;;;;;;;10474101;28;20068;-78
2024/01/30 11:36:46;;;;;;;4.88;2.83;;;;;;;;;;10459773;28;20033;-77
2024/01/30 11:41:52;;;;;;;6.05;2.20;;;;;;;;;;10475386;28;20858;-78
2024/01/30 11:47:03;;;;;;;3.85;1.92;;;;;;;;;;10460218;28;20032;-78
2024/01/30 11:52:08;;;;;;;5.18;2.22;;;;;;;;;;10459474;28;20075;-77
2024/01/30 11:57:15;;;;;;;3.50;1.98;;;;;;;;;;10471281;28;20666;-78
2024/01/30 12:02:23;;;;;;;5.63;2.40;;;;;;;;;;10479800;28;20587;-78
2024/01/30 12:07:33;;;;;;;4.20;2.40;;;;;;;;;;10478136;28;20052;-78
2024/01/30 12:12:44;;;;;;;4.63;2.10;;;;;;;;;;10444898;28;20048;-78
2024/01/30 12:17:55;;;;;;;4.10;2.00;;;;;;;;;;10473836;28;20040;-77
2024/01/30 12:23:01;;;;;;;5.45;2.60;;;;;;;;;;10476628;28;20064;-78
2024/01/30 12:28:13;;;;;;;6.50;2.58;;;;;;;;;;10452980;28;20049;-79
2024/01/30 12:33:35;;;;;;;5.75;2.40;;;;;;;;;;10475840;28;21076;-80
2024/01/30 12:38:44;;;;;;;4.10;2.25;;;;;;;;;;10472847;28;20063;-79
2024/01/30 12:43:53;;;;;;;4.88;2.20;;;;;;;;;;10472750;28;21116;-79
2024/01/30 12:49:01;;;;;;;8.85;2.30;;;;;;;;;;10475021;28;20044;-77
2024/01/30 12:54:13;;;;;;;6.15;2.10;;;;;;;;;;10475475;28;20289;-79
2024/01/30 12:59:20;;;;;;;8.07;2.08;;;;;;;;;;10457151;28;20460;-78
2024/01/30 13:04:28;;;;;;;4.65;2.00;;;;;;;;;;10475121;28;20055;-77
2024/01/30 13:09:47;;;;;;;4.05;2.08;;;;;;;;;;10473207;28;20511;-77
2024/01/30 13:15:07;;;;;;;3.22;1.88;;;;;;;;;;10478377;28;20052;-78
2024/01/30 13:20:19;;;;;;;4.72;2.20;;;;;;;;;;10472210;28;20151;-77
2024/01/30 13:25:26;;;;;;;4.75;2.10;;;;;;;;;;10457943;28;20052;-77
2024/01/30 13:36:22;;;;;;;3.08;1.90;;;;;;;;;;10471552;28;20162;-78
2024/01/30 13:41:35;;;;;;;4.70;1.88;;;;;;;;;;10449823;28;20056;-78
2024/01/30 13:46:43;;;;;;;4.25;1.75;;;;;;;;;;10473343;28;20250;-77
2024/01/30 13:51:47;;;;;;;3.15;1.85;;;;;;;;;;10457625;28;20054;-78
2024/01/30 13:56:57;;;;;;;7.05;1.75;;;;;;;;;;10473479;28;20114;-78
2024/01/30 14:02:23;;;;;;;1.98;1.45;;;;;;;;;;10471276;28;20064;-78
2024/01/30 14:07:31;;;;;;;7.75;2.10;;;;;;;;;;10454076;28;20216;-77
2024/01/30 14:12:49;;;;;;;4.57;1.92;;;;;;;;;;10472003;28;20060;-77
2024/01/30 14:17:54;;;;;;;7.03;2.47;;;;;;;;;;10482304;28;20039;-78
2024/01/30 14:22:59;;;;;;;4.90;2.03;;;;;;;;;;10470058;28;20632;-78
2024/01/30 14:28:16;;;;;;;4.57;2.22;;;;;;;;;;10485934;28;20055;-77
2024/01/30 14:33:24;;;;;;;5.22;2.28;;;;;;;;;;10469107;28;20064;-77
2024/01/30 14:38:39;;;;;;;7.85;2.50;;;;;;;;;;10467899;28;20060;-79
2024/01/30 14:43:55;;;;;;;3.80;2.38;;;;;;;;;;10484758;28;20136;-77
2024/01/30 14:49:05;;;;;;;5.55;2.30;;;;;;;;;;10464529;28;20394;-77
2024/01/30 14:54:11;;;;;;;5.43;2.42;;;;;;;;;;10470403;28;20163;-76
2024/01/30 14:59:24;;;;;;;;;;;;;;;;;;10485183;28;20067;-77
2024/01/30 15:04:32;;;;;;;7.20;2.15;;;;;;;;;;10483044;28;19928;-78
2024/01/30 15:09:42;;;;;;;6.10;2.33;;;;;;;;;;10483517;28;20496;-76
2024/01/30 15:14:50;;;;;;;5.28;1.80;;;;;;;;;;10482681;28;20068;-77
2024/01/30 15:19:58;;;;;;;7.22;1.95;;;;;;;;;;10465842;28;20056;-75
2024/01/30 15:25:03;;;;;;;5.80;2.33;;;;;;;;;;10466839;28;20147;-77
2024/01/30 15:30:15;;;;;;;5.93;2.50;;;;;;;;;;10473201;28;20537;-77
2024/01/30 15:35:32;;;;;;;7.20;2.75;;;;;;;;;;10459971;28;20063;-77
2024/01/30 15:40:38;;;;;;;11.15;2.53;;;;;;;;;;10477421;28;20048;-76
2024/01/30 15:45:48;;;;;;;8.60;2.45;;;;;;;;;;10471390;28;20063;-76
2024/01/30 15:51:01;;;;;;;7.17;2.60;;;;;;;;;;10461032;28;20045;-77
2024/01/30 15:56:18;;;;;;;7.18;2.33;;;;;;;;;;10457516;28;20112;-76
2024/01/30 16:01:25;;;;;;;6.28;2.67;;;;;;;;;;10462284;28;20148;-76
2024/01/30 16:06:49;;;;;;;7.53;2.10;;;;;;;;;;10460521;28;20054;-76
2024/01/30 16:11:57;;;;;;;6.10;2.33;;;;;;;;;;10460140;28;20048;-76
2024/01/30 16:17:10;;;;;;;6.82;2.47;;;;;;;;;;10459553;28;20045;-75
2024/01/30 16:22:22;;;;;;;4.80;2.17;;;;;;;;;;10472169;28;20040;-76
2024/01/30 16:27:30;;;;;;;6.68;2.85;;;;;;;;;;10469726;28;20040;-75
2024/01/30 16:32:33;;;;;;;9.70;2.88;;;;;;;;;;10471984;28;20659;-77
2024/01/30 16:37:51;;;;;;;8.88;3.85;;;;;;;;;;10472302;28;20036;-76
2024/01/30 16:42:57;;;;;;;11.82;3.88;;;;;;;;;;10437499;28;20049;-75
2024/01/30 16:48:16;;;;;;;9.88;3.15;;;;;;;;;;10457945;28;20459;-76
2024/01/30 16:53:22;;;;;;;11.05;2.92;;;;;;;;;;10457412;28;20048;-75
2024/01/30 16:58:35;;;;;;;10.80;3.85;;;;;;;;;;10473823;28;20048;-75
2024/01/30 17:03:54;;;;;;;11.20;2.95;;;;;;;;;;10438022;28;20043;-76
2024/01/30 17:09:15;;;;;;;11.40;3.30;;;;;;;;;;10473257;28;20528;-76
2024/01/30 17:14:21;;;;;;;7.88;2.28;;;;;;;;;;10442462;28;20556;-76
2024/01/30 17:19:28;;;;;;;5.28;2.53;;;;;;;;;;10477282;28;20040;-75
2024/01/30 17:24:34;;;;;;;33.10;12.05;;;;;;;;;;10470513;28;20090;-76
2024/01/30 17:29:53;;;;;;;54.30;18.30;;;;;;;;;;10472591;28;20464;-75
2024/01/30 17:35:01;;;;;;;39.65;13.80;;;;;;;;;;10468327;28;20056;-75
2024/01/30 17:40:14;;;;;;;19.90;5.75;;;;;;;;;;10467814;28;20115;-76
2024/01/30 17:45:20;;;;;;;19.20;4.25;;;;;;;;;;10451699;28;20131;-76
2024/01/30 17:50:24;;;;;;;14.45;4.40;;;;;;;;;;10437544;28;20138;-76
2024/01/30 17:55:35;;;;;;;11.18;3.78;;;;;;;;;;10456149;28;20040;-75
2024/01/30 18:00:39;;;;;;;10.20;3.95;;;;;;;;;;10457265;28;20565;-75
2024/01/30 18:05:47;;;;;;;17.67;4.15;;;;;;;;;;10454973;28;20044;-76
2024/01/30 18:10:53;;;;;;;16.25;4.68;;;;;;;;;;10468863;28;20497;-76
2024/01/30 18:16:04;;;;;;;9.52;3.65;;;;;;;;;;10455223;28;20181;-76
2024/01/30 18:21:11;;;;;;;;;;;;;;;;;;10471189;28;20611;-76
2024/01/30 18:31:56;;;;;;;10.05;4.68;;;;;;;;;;10468831;28;20045;-76
2024/01/30 18:37:06;;;;;;;21.55;6.95;;;;;;;;;;10444839;28;20051;-76
2024/01/30 18:42:13;;;;;;;14.10;5.68;;;;;;;;;;10461065;28;20044;-76
2024/01/30 18:47:24;;;;;;;15.90;4.93;;;;;;;;;;10467360;28;20112;-76
2024/01/30 18:52:36;;;;;;;21.35;5.50;;;;;;;;;;10428008;28;20135;-74
2024/01/30 18:57:58;;;;;;;13.93;4.80;;;;;;;;;;10467113;28;20465;-77
2024/01/30 19:03:11;;;;;;;12.70;4.93;;;;;;;;;;10469684;28;20386;-78
2024/01/30 19:08:16;;;;;;;13.57;4.63;;;;;;;;;;10469844;28;20051;-75
2024/01/30 19:13:25;;;;;;;13.55;4.97;;;;;;;;;;10471350;28;20056;-77
2024/01/30 19:18:32;;;;;;;13.10;5.00;;;;;;;;;;10472478;28;21455;-76
2024/01/30 19:23:39;;;;;;;17.33;5.18;;;;;;;;;;10475741;28;20629;-76
2024/01/30 19:28:58;;;;;;;14.07;5.03;;;;;;;;;;10473860;28;20224;-76
2024/01/30 19:34:10;;;;;;;13.27;4.53;;;;;;;;;;10456165;28;20040;-74
2024/01/30 19:39:21;;;;;;;11.32;4.45;;;;;;;;;;10457678;28;20194;-77
2024/01/30 19:44:34;;;;;;;14.32;4.85;;;;;;;;;;10469757;28;20052;-75
2024/01/30 19:49:44;;;;;;;16.60;5.20;;;;;;;;;;10449514;28;20565;-76
2024/01/30 19:54:49;;;;;;;13.85;4.63;;;;;;;;;;10472857;28;20139;-76
2024/01/30 19:59:56;;;;;;;13.38;4.97;;;;;;;;;;10456044;28;20036;-76
2024/01/30 20:05:09;;;;;;;10.40;4.30;;;;;;;;;;10472369;28;20056;-77
2024/01/30 20:10:13;;;;;;;15.85;4.90;;;;;;;;;;10452486;28;20514;-76
2024/01/30 20:15:22;;;;;;;;;;;;;;;;;;10456784;28;20047;-76
2024/01/30 20:20:42;;;;;;;13.23;4.32;;;;;;;;;;10477330;28;19928;-76
2024/01/30 20:25:47;;;;;;;14.35;4.03;;;;;;;;;;10476517;28;20066;-76
2024/01/30 20:30:53;;;;;;;10.32;4.18;;;;;;;;;;10467079;28;20040;-75
2024/01/30 20:36:09;;;;;;;13.60;5.35;;;;;;;;;;10467510;28;20044;-76
2024/01/30 20:41:23;;;;;;;12.48;4.63;;;;;;;;;;10472208;28;20114;-77
2024/01/30 20:46:28;;;;;;;13.07;4.85;;;;;;;;;;10471687;28;20502;-76
2024/01/30 20:51:37;;;;;;;11.27;4.20;;;;;;;;;;10468345;28;20052;-75
2024/01/30 20:56:41;;;;;;;9.63;4.00;;;;;;;;;;10474005;28;20044;-74
2024/01/30 21:07:13;;;;;;;12.45;4.57;;;;;;;;;;10469476;28;20041;-74
2024/01/30 21:12:23;;;;;;;11.73;4.53;;;;;;;;;;10454831;28;20056;-75
2024/01/30 21:17:39;;;;;;;11.85;4.13;;;;;;;;;;10455916;28;20044;-75
2024/01/30 21:23:01;;;;;;;12.73;4.57;;;;;;;;;;10443836;28;20186;-75
2024/01/30 21:28:06;;;;;;;10.80;4.22;;;;;;;;;;10469979;28;20164;-75
2024/01/30 21:33:10;;;;;;;10.57;3.75;;;;;;;;;;10448766;28;20054;-75
2024/01/30 21:38:19;;;;;;;9.48;4.13;;;;;;;;;;10470331;28;20113;-75
2024/01/30 21:43:23;;;;;;;3.85;2.20;;;;;;;;;;10473543;28;20043;-76
2024/01/30 21:48:36;;;;;;;5.82;3.20;;;;;;;;;;10446779;28;20056;-76
2024/01/30 21:53:46;;;;;;;7.28;3.33;;;;;;;;;;10465320;28;20049;-76
2024/01/30 21:58:52;;;;;;;7.28;3.50;;;;;;;;;;10469726;28;20064;-76
2024/01/30 22:04:00;;;;;;;7.85;2.65;;;;;;;;;;10470414;28;20055;-74
2024/01/30 22:09:23;;;;;;;12.23;2.78;;;;;;;;;;10471339;28;21305;-76
2024/01/30 22:14:55;;;;;;;6.07;2.72;;;;;;;;;;10469547;28;20485;-76
2024/01/30 22:20:03;;;;;;;5.78;2.30;;;;;;;;;;10469525;28;20053;-76
2024/01/30 22:25:15;;;;;;;7.90;3.35;;;;;;;;;;10433810;28;20068;-77
2024/01/30 22:30:22;;;;;;;7.40;2.92;;;;;;;;;;10471541;28;20055;-77
2024/01/30 22:35:32;;;;;;;8.43;3.15;;;;;;;;;;10463603;28;20045;-77
2024/01/30 22:40:41;;;;;;;7.70;3.08;;;;;;;;;;10478021;28;20593;-75
2024/01/30 22:46:02;;;;;;;5.70;2.55;;;;;;;;;;10464427;28;20048;-76
2024/01/30 22:51:11;;;;;;;10.98;3.78;;;;;;;;;;10478865;28;20390;-76
2024/01/30 22:56:18;;;;;;;8.68;2.83;;;;;;;;;;10472223;28;20057;-76
2024/01/30 23:01:22;;;;;;;6.60;3.22;;;;;;;;;;10478989;28;20689;-76
2024/01/30 23:06:44;;;;;;;6.78;2.70;;;;;;;;;;10477493;28;20076;-75
2024/01/30 23:12:07;;;;;;;6.43;2.70;;;;;;;;;;10444715;28;20036;-76
2024/01/30 23:17:20;;;;;;;8.48;3.38;;;;;;;;;;10458060;28;20049;-76
2024/01/30 23:22:33;;;;;;;6.15;2.50;;;;;;;;;;10477161;28;20156;-76
2024/01/30 23:27:38;;;;;;;8.13;3.10;;;;;;;;;;10456413;28;20044;-77
2024/01/30 23:32:49;;;;;;;4.85;2.38;;;;;;;;;;10477523;28;20132;-76
2024/01/30 23:38:18;;;;;;;6.00;2.63;;;;;;;;;;10477378;28;20490;-75
2024/01/30 23:43:23;;;;;;;4.20;2.08;;;;;;;;;;10477557;28;20510;-77
2024/01/30 23:48:37;;;;;;;5.85;2.15;;;;;;;;;;10442812;28;21652;-76
2024/01/30 23:53:46;;;;;;;6.15;2.80;;;;;;;;;;10476070;28;20036;-76
2024/01/30 23:58:59;;;;;;;4.70;2.05;;;;;;;;;;10459547;28;20401;-75
